Time;durP1;ratioP1;P1;durP2;ratioP2;P2;SDS_P1;SDS_P2;PMS_P1;PMS_P2;Temp;Humidity;BMP_temperature;BMP_pressure;BME280_temperature;BME280_humidity;BME280_pressure;Samples;Min_cycle;Max_cycle;Signal;HPM_P1;HPM_P2
2021/09/23 00:00:16;;;;;;;;;;;10.30;99.90;;;;;;4994066;28;20142;-71
2021/09/23 00:02:49;;;;;;;;;;;10.30;99.90;;;;;;4993532;28;19925;-71
2021/09/23 00:05:17;;;;;;;;;;;10.30;99.90;;;;;;4989255;28;20375;-72
2021/09/23 00:07:45;;;;;;;;;;;10.40;99.90;;;;;;4998158;28;20020;-72
2021/09/23 00:10:12;;;;;;;;;;;10.40;99.90;;;;;;4993034;28;19960;-72
2021/09/23 00:12:39;;;;;;;;;;;10.40;99.90;;;;;;4996169;28;20764;-72
2021/09/23 00:15:07;;;;;;;;;;;10.40;99.90;;;;;;4991423;28;20198;-71
2021/09/23 00:17:33;;;;;;;;;;;10.40;99.90;;;;;;4990503;28;19929;-72
2021/09/23 00:20:02;;;;;;;;;;;10.40;99.90;;;;;;4987467;28;19941;-72
2021/09/23 00:22:28;;;;;;;;;;;10.40;99.90;;;;;;4990698;28;19934;-71
2021/09/23 00:24:55;;;;;;;;;;;10.40;99.90;;;;;;4988323;28;20024;-71
2021/09/23 00:27:22;;;;;;;;;;;10.30;99.90;;;;;;4991874;28;20012;-71
2021/09/23 00:29:48;;;;;;;;;;;10.20;99.90;;;;;;4989013;28;20081;-71
2021/09/23 00:32:15;;;;;;;;;;;10.20;99.90;;;;;;4989604;28;19934;-71
2021/09/23 00:34:41;;;;;;;;;;;10.10;99.90;;;;;;4991181;28;19949;-71
2021/09/23 00:37:09;;;;;;;;;;;10.10;99.90;;;;;;4996753;28;19948;-71
2021/09/23 00:39:36;;;;;;;;;;;10.10;99.90;;;;;;4997434;28;19932;-71
2021/09/23 00:42:04;;;;;;;;;;;10.10;99.90;;;;;;4999003;28;20016;-72
2021/09/23 00:44:31;;;;;;;;;;;10.20;99.90;;;;;;4988930;28;19961;-72
2021/09/23 00:46:58;;;;;;;;;;;10.20;99.90;;;;;;4992258;28;19926;-71
2021/09/23 00:49:24;;;;;;;;;;;10.20;99.90;;;;;;4991983;28;19933;-71
2021/09/23 00:51:51;;;;;;;;;;;10.20;99.90;;;;;;4995059;28;19937;-71
2021/09/23 00:54:19;;;;;;;;;;;10.30;99.90;;;;;;4997204;28;20012;-71
2021/09/23 00:56:46;;;;;;;;;;;10.30;99.90;;;;;;4989291;28;19934;-71
2021/09/23 00:59:13;;;;;;;;;;;10.20;99.90;;;;;;4992113;28;19932;-71
2021/09/23 01:01:45;;;;;;;;;;;10.20;99.90;;;;;;4993346;28;19926;-71
2021/09/23 01:04:12;;;;;;;;;;;10.20;99.90;;;;;;4996885;28;20481;-72
2021/09/23 01:06:38;;;;;;;;;;;10.30;99.90;;;;;;4991157;28;19940;-71
2021/09/23 01:09:05;;;;;;;;;;;10.30;99.90;;;;;;4994486;28;19932;-71
2021/09/23 01:11:33;;;;;;;;;;;10.30;99.90;;;;;;4988022;28;19926;-71
2021/09/23 01:14:00;;;;;;;;;;;10.40;99.90;;;;;;4989065;28;20388;-71
2021/09/23 01:16:26;;;;;;;;;;;10.40;99.90;;;;;;4991004;28;20378;-71
2021/09/23 01:18:53;;;;;;;;;;;10.40;99.90;;;;;;4998679;28;19926;-71
2021/09/23 01:21:21;;;;;;;;;;;10.50;99.90;;;;;;5001217;28;19961;-71
2021/09/23 01:23:47;;;;;;;;;;;10.50;99.90;;;;;;4990071;28;19932;-71
2021/09/23 01:26:17;;;;;;;;;;;10.50;99.90;;;;;;4991280;28;19931;-71
2021/09/23 01:28:44;;;;;;;;;;;10.60;99.90;;;;;;5003838;28;20303;-71
2021/09/23 01:31:11;;;;;;;;;;;10.50;99.90;;;;;;4990878;28;20029;-71
2021/09/23 01:33:38;;;;;;;;;;;10.50;99.90;;;;;;4993273;28;19932;-71
2021/09/23 01:36:05;;;;;;;;;;;10.50;99.90;;;;;;4995242;28;19926;-70
2021/09/23 01:38:33;;;;;;;;;;;10.50;99.90;;;;;;4990339;28;19984;-71
2021/09/23 01:40:59;;;;;;;;;;;10.40;99.90;;;;;;5000782;28;19925;-71
2021/09/23 01:43:26;;;;;;;;;;;10.40;99.90;;;;;;4997540;28;19979;-71
2021/09/23 01:45:53;;;;;;;;;;;10.40;99.90;;;;;;5000270;28;19925;-71
2021/09/23 01:48:19;;;;;;;;;;;10.30;99.90;;;;;;5002553;28;19933;-71
2021/09/23 01:50:46;;;;;;;;;;;10.30;99.90;;;;;;4997946;28;20089;-71
2021/09/23 01:53:13;;;;;;;;;;;10.20;99.90;;;;;;4992523;28;19925;-71
2021/09/23 01:55:41;;;;;;;;;;;10.20;99.90;;;;;;4996746;28;19926;-70
2021/09/23 01:58:08;;;;;;;;;;;10.10;99.90;;;;;;4995856;28;19929;-70
2021/09/23 02:00:34;;;;;;;;;;;10.00;99.90;;;;;;4996677;28;20195;-71
2021/09/23 02:03:01;;;;;;;;;;;10.00;99.90;;;;;;4996244;28;19939;-71
2021/09/23 02:05:28;;;;;;;;;;;10.00;99.90;;;;;;4997022;28;19983;-70
2021/09/23 02:07:54;;;;;;;;;;;10.00;99.90;;;;;;4999158;28;20384;-71
2021/09/23 02:10:21;;;;;;;;;;;10.00;99.90;;;;;;5004350;28;20403;-71
2021/09/23 02:12:49;;;;;;;;;;;10.00;99.90;;;;;;4997387;28;19926;-71
2021/09/23 02:15:16;;;;;;;;;;;9.90;99.90;;;;;;4997155;28;19940;-71
2021/09/23 02:17:44;;;;;;;;;;;9.90;99.90;;;;;;4992798;28;19932;-70
2021/09/23 02:20:11;;;;;;;;;;;9.90;99.90;;;;;;4991760;28;20021;-70
2021/09/23 02:22:37;;;;;;;;;;;9.90;99.90;;;;;;4992723;28;19936;-71
2021/09/23 02:25:05;;;;;;;;;;;9.90;99.90;;;;;;4992264;28;20020;-70
2021/09/23 02:27:31;;;;;;;;;;;9.90;99.90;;;;;;4995555;28;19926;-70
2021/09/23 02:30:00;;;;;;;;;;;9.90;99.90;;;;;;4994376;28;19932;-70
2021/09/23 02:32:27;;;;;;;;;;;9.90;99.90;;;;;;4995959;28;19926;-70
2021/09/23 02:34:56;;;;;;;;;;;9.80;99.90;;;;;;5005001;28;19933;-70
2021/09/23 02:37:22;;;;;;;;;;;9.80;99.90;;;;;;4995697;28;20032;-70
2021/09/23 02:39:49;;;;;;;;;;;9.80;99.90;;;;;;4993910;28;19926;-70
2021/09/23 02:42:16;;;;;;;;;;;9.80;99.90;;;;;;4996681;28;19926;-70
2021/09/23 02:44:42;;;;;;;;;;;9.80;99.90;;;;;;4997105;28;19929;-70
2021/09/23 02:47:11;;;;;;;;;;;9.80;99.90;;;;;;4998115;28;20020;-70
2021/09/23 02:49:38;;;;;;;;;;;9.80;99.90;;;;;;4994967;28;20429;-69
2021/09/23 02:52:04;;;;;;;;;;;9.80;99.90;;;;;;4997293;28;20402;-70
2021/09/23 02:54:31;;;;;;;;;;;9.90;99.90;;;;;;4998061;28;20013;-70
2021/09/23 02:56:58;;;;;;;;;;;9.90;99.90;;;;;;4996549;28;19941;-71
2021/09/23 02:59:24;;;;;;;;;;;10.00;99.90;;;;;;5000046;28;19934;-71
2021/09/23 03:01:51;;;;;;;;;;;10.00;99.90;;;;;;4997988;28;19973;-71
2021/09/23 03:04:19;;;;;;;;;;;10.10;99.90;;;;;;4996147;28;19934;-70
2021/09/23 03:06:46;;;;;;;;;;;10.10;99.90;;;;;;4999807;28;19925;-70
2021/09/23 03:09:12;;;;;;;;;;;10.00;99.90;;;;;;4991027;28;19925;-71
2021/09/23 03:11:39;;;;;;;;;;;10.00;99.90;;;;;;4993925;28;19930;-70
2021/09/23 03:14:06;;;;;;;;;;;10.00;99.90;;;;;;4993430;28;20388;-71
2021/09/23 03:16:33;;;;;;;;;;;10.10;99.90;;;;;;5000920;28;20399;-71
2021/09/23 03:19:00;;;;;;;;;;;10.10;99.90;;;;;;4992792;28;19926;-71
2021/09/23 03:21:28;;;;;;;;;;;10.10;99.90;;;;;;4995275;28;19926;-71
2021/09/23 03:23:54;;;;;;;;;;;10.10;99.90;;;;;;4993442;28;19926;-71
2021/09/23 03:26:21;;;;;;;;;;;10.10;99.90;;;;;;5000726;28;19926;-71
2021/09/23 03:28:48;;;;;;;;;;;10.10;99.90;;;;;;4999974;28;19929;-71
2021/09/23 03:31:14;;;;;;;;;;;10.10;99.90;;;;;;4996727;28;20354;-71
2021/09/23 03:33:41;;;;;;;;;;;10.10;99.90;;;;;;4992464;28;19940;-71
2021/09/23 03:36:08;;;;;;;;;;;10.10;99.90;;;;;;4996787;28;19940;-71
2021/09/23 03:38:36;;;;;;;;;;;10.20;99.90;;;;;;4995445;28;19933;-71
2021/09/23 03:41:03;;;;;;;;;;;10.20;99.90;;;;;;5002019;28;20283;-71
2021/09/23 03:43:29;;;;;;;;;;;10.20;99.90;;;;;;4995756;28;19932;-71
2021/09/23 03:45:58;;;;;;;;;;;10.20;99.90;;;;;;4999634;28;20016;-71
2021/09/23 03:48:24;;;;;;;;;;;10.20;99.90;;;;;;4990869;28;20403;-71
2021/09/23 03:50:51;;;;;;;;;;;10.20;99.90;;;;;;4996936;28;20319;-72
2021/09/23 03:53:18;;;;;;;;;;;10.20;99.90;;;;;;4991196;28;19995;-72
2021/09/23 03:55:46;;;;;;;;;;;10.20;99.90;;;;;;4994397;28;19926;-73
2021/09/23 03:58:12;;;;;;;;;;;10.20;99.90;;;;;;4992032;28;19925;-72
2021/09/23 04:00:39;;;;;;;;;;;10.20;99.90;;;;;;4993824;28;19932;-72
2021/09/23 04:03:06;;;;;;;;;;;10.20;99.90;;;;;;4991807;28;19996;-72
2021/09/23 04:05:32;;;;;;;;;;;10.20;99.90;;;;;;4993749;28;20300;-72
2021/09/23 04:08:00;;;;;;;;;;;10.10;99.90;;;;;;4995856;28;20415;-72
2021/09/23 04:10:27;;;;;;;;;;;10.10;99.90;;;;;;4992427;28;20304;-72
2021/09/23 04:12:55;;;;;;;;;;;10.00;99.90;;;;;;4998810;28;20029;-72
2021/09/23 04:15:22;;;;;;;;;;;10.10;99.90;;;;;;4992686;28;20027;-72
2021/09/23 04:17:49;;;;;;;;;;;10.10;99.90;;;;;;4994494;28;19925;-73
2021/09/23 04:20:16;;;;;;;;;;;10.00;99.90;;;;;;4998669;28;19940;-73
2021/09/23 04:22:43;;;;;;;;;;;10.00;99.90;;;;;;4995878;28;20344;-73
2021/09/23 04:25:10;;;;;;;;;;;10.00;99.90;;;;;;4997523;28;19933;-72
2021/09/23 04:27:37;;;;;;;;;;;10.00;99.90;;;;;;4990528;28;19933;-72
2021/09/23 04:30:06;;;;;;;;;;;10.00;99.90;;;;;;4995687;28;19944;-73
2021/09/23 04:32:33;;;;;;;;;;;10.00;99.90;;;;;;4997389;28;19931;-73
2021/09/23 04:35:00;;;;;;;;;;;10.00;99.90;;;;;;4995328;28;19945;-72
2021/09/23 04:37:26;;;;;;;;;;;9.90;99.90;;;;;;4989961;28;19939;-72
2021/09/23 04:39:53;;;;;;;;;;;9.90;99.90;;;;;;4994599;28;20024;-72
2021/09/23 04:42:19;;;;;;;;;;;9.80;99.90;;;;;;4988310;28;20013;-72
2021/09/23 04:44:46;;;;;;;;;;;9.80;99.90;;;;;;4991181;28;19936;-72
2021/09/23 04:47:14;;;;;;;;;;;9.80;99.90;;;;;;4999505;28;19955;-72
2021/09/23 04:49:44;;;;;;;;;;;9.80;99.90;;;;;;4988789;28;20302;-72
2021/09/23 04:52:10;;;;;;;;;;;9.70;99.90;;;;;;4996635;28;19930;-73
2021/09/23 04:54:37;;;;;;;;;;;9.80;99.90;;;;;;4999227;28;19925;-72
2021/09/23 04:57:04;;;;;;;;;;;9.70;99.90;;;;;;4996830;28;19930;-72
2021/09/23 04:59:30;;;;;;;;;;;9.70;99.90;;;;;;4996848;28;20020;-72
2021/09/23 05:01:57;;;;;;;;;;;9.80;99.90;;;;;;4992837;28;19926;-73
2021/09/23 05:04:25;;;;;;;;;;;9.70;99.90;;;;;;4998693;28;19932;-72
2021/09/23 05:06:53;;;;;;;;;;;9.70;99.90;;;;;;4990080;28;19934;-73
2021/09/23 05:09:19;;;;;;;;;;;9.60;99.90;;;;;;4993656;28;20380;-72
2021/09/23 05:11:46;;;;;;;;;;;9.60;99.90;;;;;;4992120;28;19932;-72
2021/09/23 05:14:16;;;;;;;;;;;9.60;99.90;;;;;;4996165;28;19925;-72
2021/09/23 05:16:44;;;;;;;;;;;9.70;99.90;;;;;;4992408;28;20080;-73
2021/09/23 05:19:11;;;;;;;;;;;9.60;99.90;;;;;;4990414;28;19937;-78
2021/09/23 05:21:39;;;;;;;;;;;9.70;99.90;;;;;;4990228;28;19933;-76
2021/09/23 05:24:09;;;;;;;;;;;9.70;99.90;;;;;;4993101;28;19953;-78
2021/09/23 05:26:36;;;;;;;;;;;9.60;99.90;;;;;;4992804;28;20387;-78
2021/09/23 05:29:02;;;;;;;;;;;9.70;99.90;;;;;;4995954;28;19932;-78
2021/09/23 05:31:29;;;;;;;;;;;9.70;99.90;;;;;;4998957;28;19936;-79
2021/09/23 05:33:56;;;;;;;;;;;9.70;99.90;;;;;;4998274;28;19926;-79
2021/09/23 05:36:23;;;;;;;;;;;9.70;99.90;;;;;;4997977;28;19925;-78
2021/09/23 05:38:51;;;;;;;;;;;9.80;99.90;;;;;;4992979;28;19929;-77
2021/09/23 05:41:18;;;;;;;;;;;9.80;99.90;;;;;;4995490;28;19926;-78
2021/09/23 05:43:46;;;;;;;;;;;9.80;99.90;;;;;;5010508;28;22121;-79
2021/09/23 05:46:16;;;;;;;;;;;9.90;99.90;;;;;;5007552;28;19933;-79
2021/09/23 05:48:43;;;;;;;;;;;9.90;99.90;;;;;;4998796;28;19926;-80
2021/09/23 05:51:09;;;;;;;;;;;10.00;99.90;;;;;;5001111;28;19940;-80
2021/09/23 05:53:36;;;;;;;;;;;10.00;99.90;;;;;;4992689;28;20555;-79
2021/09/23 05:56:05;;;;;;;;;;;10.10;99.90;;;;;;4994116;28;19925;-77
2021/09/23 05:58:31;;;;;;;;;;;10.10;99.90;;;;;;5004840;28;20099;-77
2021/09/23 06:00:58;;;;;;;;;;;10.20;99.90;;;;;;4998610;28;20047;-77
2021/09/23 06:03:25;;;;;;;;;;;10.20;99.90;;;;;;4998699;28;20020;-77
2021/09/23 06:05:53;;;;;;;;;;;10.30;99.90;;;;;;4995162;28;20024;-77
2021/09/23 06:08:19;;;;;;;;;;;10.30;99.90;;;;;;4996330;28;20424;-76
2021/09/23 06:10:46;;;;;;;;;;;10.40;99.90;;;;;;4992025;28;19931;-76
2021/09/23 06:13:14;;;;;;;;;;;10.50;99.90;;;;;;4996662;28;19925;-77
2021/09/23 06:15:41;;;;;;;;;;;10.70;99.90;;;;;;5014139;28;19926;-77
2021/09/23 06:18:08;;;;;;;;;;;10.70;99.90;;;;;;4995400;28;20052;-75
2021/09/23 06:20:35;;;;;;;;;;;10.70;99.90;;;;;;5003224;28;20018;-75
2021/09/23 06:23:01;;;;;;;;;;;10.80;99.90;;;;;;5046161;28;19934;-76
2021/09/23 06:25:28;;;;;;;;;;;10.90;99.90;;;;;;5044215;28;20379;-75
2021/09/23 06:27:55;;;;;;;;;;;10.90;99.90;;;;;;5000355;28;20028;-76
2021/09/23 06:30:23;;;;;;;;;;;11.00;99.90;;;;;;5011754;28;19926;-77
2021/09/23 06:32:49;;;;;;;;;;;11.10;99.90;;;;;;4996116;28;19940;-76
2021/09/23 06:35:16;;;;;;;;;;;11.20;99.90;;;;;;5002431;28;20009;-76
2021/09/23 06:37:43;;;;;;;;;;;11.30;99.90;;;;;;4992670;28;20024;-75
2021/09/23 06:40:10;;;;;;;;;;;11.40;99.90;;;;;;4999583;28;19933;-76
2021/09/23 06:42:37;;;;;;;;;;;11.60;99.90;;;;;;5000080;28;19968;-75
2021/09/23 06:45:04;;;;;;;;;;;11.60;99.90;;;;;;4992879;28;20011;-77
2021/09/23 06:47:32;;;;;;;;;;;11.70;99.90;;;;;;5005820;28;19979;-75
2021/09/23 06:49:59;;;;;;;;;;;11.80;99.90;;;;;;4993266;28;19926;-75
2021/09/23 06:52:26;;;;;;;;;;;11.90;99.90;;;;;;4992848;28;19934;-75
2021/09/23 06:54:53;;;;;;;;;;;12.00;99.90;;;;;;4996106;28;19951;-75
2021/09/23 06:57:20;;;;;;;;;;;12.10;99.90;;;;;;5021376;28;19933;-73
2021/09/23 06:59:47;;;;;;;;;;;12.10;99.90;;;;;;4991082;28;19977;-73
2021/09/23 07:02:13;;;;;;;;;;;12.20;99.90;;;;;;5027258;28;20011;-77
2021/09/23 07:04:41;;;;;;;;;;;12.30;99.90;;;;;;5003257;28;19929;-75
2021/09/23 07:07:08;;;;;;;;;;;12.40;99.90;;;;;;5000537;28;20020;-76
2021/09/23 07:09:35;;;;;;;;;;;12.50;99.90;;;;;;5002013;28;20436;-75
2021/09/23 07:12:02;;;;;;;;;;;12.60;99.90;;;;;;5002577;28;20294;-76
2021/09/23 07:14:29;;;;;;;;;;;12.70;99.90;;;;;;5005613;28;20376;-75
2021/09/23 07:16:55;;;;;;;;;;;12.80;99.90;;;;;;5005199;28;20382;-76
2021/09/23 07:19:22;;;;;;;;;;;12.90;99.90;;;;;;4992286;28;19932;-74
2021/09/23 07:21:50;;;;;;;;;;;13.00;99.90;;;;;;5002192;28;19943;-74
2021/09/23 07:24:17;;;;;;;;;;;13.20;99.90;;;;;;5009116;28;20048;-76
2021/09/23 07:26:44;;;;;;;;;;;13.30;99.90;;;;;;4992498;28;20008;-75
2021/09/23 07:29:14;;;;;;;;;;;13.40;99.90;;;;;;4993840;28;19929;-76
2021/09/23 07:31:41;;;;;;;;;;;14.50;99.90;;;;;;4995230;28;20013;-75
2021/09/23 07:34:08;;;;;;;;;;;16.40;99.90;;;;;;5002701;28;19929;-75
2021/09/23 07:36:35;;;;;;;;;;;17.40;99.90;;;;;;5011903;28;19924;-74
2021/09/23 07:39:06;;;;;;;;;;;18.30;99.90;;;;;;4997660;28;20304;-75
2021/09/23 07:41:33;;;;;;;;;;;19.30;99.90;;;;;;5000073;28;19930;-74
2021/09/23 07:43:59;;;;;;;;;;;19.70;99.90;;;;;;4993571;28;20019;-74
2021/09/23 07:46:26;;;;;;;;;;;19.70;99.90;;;;;;4997480;28;19964;-74
2021/09/23 07:48:53;;;;;;;;;;;19.80;99.90;;;;;;5000670;28;19994;-76
2021/09/23 07:51:20;;;;;;;;;;;20.20;99.90;;;;;;4989539;28;19944;-74
2021/09/23 07:53:47;;;;;;;;;;;20.40;99.90;;;;;;4988214;28;19926;-76
2021/09/23 07:56:15;;;;;;;;;;;20.70;99.90;;;;;;5000607;28;19940;-76
2021/09/23 07:58:42;;;;;;;;;;;20.60;99.90;;;;;;4990659;28;20044;-73
2021/09/23 08:01:09;;;;;;;;;;;20.30;99.90;;;;;;4990703;28;20048;-73
2021/09/23 08:03:36;;;;;;;;;;;20.30;99.90;;;;;;4987945;28;19933;-76
2021/09/23 08:06:02;;;;;;;;;;;20.00;99.90;;;;;;4998147;28;20028;-74
2021/09/23 08:08:29;;;;;;;;;;;20.40;99.90;;;;;;5014335;28;20007;-74
2021/09/23 08:10:56;;;;;;;;;;;20.40;99.90;;;;;;4994844;28;19926;-73
2021/09/23 08:13:25;;;;;;;;;;;20.80;99.90;;;;;;4994259;28;19932;-75
2021/09/23 08:15:53;;;;;;;;;;;21.20;99.90;;;;;;4996961;28;20028;-75
2021/09/23 08:18:22;;;;;;;;;;;21.40;99.90;;;;;;5020818;28;19923;-76
2021/09/23 08:20:49;;;;;;;;;;;21.10;99.90;;;;;;4999181;28;19955;-75
2021/09/23 08:23:17;;;;;;;;;;;21.70;99.90;;;;;;4990139;28;20087;-75
2021/09/23 08:25:45;;;;;;;;;;;21.80;99.90;;;;;;4990908;28;19933;-75
2021/09/23 08:28:12;;;;;;;;;;;21.80;99.70;;;;;;4995791;28;20265;-76
2021/09/23 08:30:43;;;;;;;;;;;21.60;99.90;;;;;;4997884;28;19926;-75
2021/09/23 08:33:10;;;;;;;;;;;21.50;99.90;;;;;;5004758;28;19980;-72
2021/09/23 08:35:36;;;;;;;;;;;21.40;99.90;;;;;;5002861;28;19936;-75
2021/09/23 08:38:03;;;;;;;;;;;21.10;99.90;;;;;;4998627;28;19925;-77
2021/09/23 08:40:30;;;;;;;;;;;20.90;99.90;;;;;;4998209;28;19986;-71
2021/09/23 08:42:57;;;;;;;;;;;21.30;99.90;;;;;;5004688;28;19926;-75
2021/09/23 08:45:23;;;;;;;;;;;21.60;99.90;;;;;;4989599;28;19944;-73
2021/09/23 08:47:51;;;;;;;;;;;21.80;99.80;;;;;;4997769;28;20303;-76
2021/09/23 08:50:18;;;;;;;;;;;22.00;99.60;;;;;;4998037;28;20523;-70
2021/09/23 08:52:45;;;;;;;;;;;22.00;99.20;;;;;;4994009;28;19926;-75
2021/09/23 08:55:19;;;;;;;;;;;22.20;99.10;;;;;;5007620;28;20390;-74
2021/09/23 08:57:46;;;;;;;;;;;22.40;98.30;;;;;;5001560;28;19940;-75
2021/09/23 09:00:13;;;;;;;;;;;22.00;98.90;;;;;;4996151;28;19940;-75
2021/09/23 09:02:40;;;;;;;;;;;21.80;99.20;;;;;;4992703;28;19937;-74
2021/09/23 09:05:16;;;;;;;;;;;21.80;99.50;;;;;;4996221;28;20295;-74
2021/09/23 09:07:43;;;;;;;;;;;21.80;99.70;;;;;;4987480;28;20010;-74
2021/09/23 09:10:10;;;;;;;;;;;21.70;99.90;;;;;;4996704;28;19958;-75
2021/09/23 09:12:38;;;;;;;;;;;21.40;99.90;;;;;;4993378;28;19965;-77
2021/09/23 09:15:06;;;;;;;;;;;22.00;99.80;;;;;;4994129;28;19934;-76
2021/09/23 09:17:34;;;;;;;;;;;22.10;99.60;;;;;;4993653;28;20037;-77
2021/09/23 09:20:02;;;;;;;;;;;21.60;99.90;;;;;;4999931;28;20322;-77
2021/09/23 09:22:31;;;;;;;;;;;21.40;99.90;;;;;;5008711;28;20426;-76
2021/09/23 09:24:59;;;;;;;;;;;21.40;99.90;;;;;;5003222;28;19940;-76
2021/09/23 09:27:27;;;;;;;;;;;21.70;99.90;;;;;;4993820;28;19933;-76
2021/09/23 09:29:54;;;;;;;;;;;22.00;99.30;;;;;;4992353;28;20372;-77
2021/09/23 09:32:33;;;;;;;;;;;21.80;99.90;;;;;;4997694;28;20302;-75
2021/09/23 09:35:00;;;;;;;;;;;21.70;99.90;;;;;;4996720;28;19947;-75
2021/09/23 09:37:27;;;;;;;;;;;21.20;99.90;;;;;;5000341;28;20020;-76
2021/09/23 09:39:58;;;;;;;;;;;21.10;99.90;;;;;;4990687;28;20299;-74
2021/09/23 09:42:26;;;;;;;;;;;21.70;99.90;;;;;;4997978;28;20008;-76
2021/09/23 09:44:53;;;;;;;;;;;21.40;99.90;;;;;;5007761;28;20012;-75
2021/09/23 09:47:26;;;;;;;;;;;21.00;99.90;;;;;;4985819;28;20009;-75
2021/09/23 09:49:53;;;;;;;;;;;21.20;99.90;;;;;;4988030;28;20389;-75
2021/09/23 09:52:28;;;;;;;;;;;20.70;99.90;;;;;;5011697;28;19971;-76
2021/09/23 09:55:00;;;;;;;;;;;20.50;99.90;;;;;;4993408;28;19932;-76
2021/09/23 09:57:28;;;;;;;;;;;20.90;99.90;;;;;;5005345;28;20010;-76
2021/09/23 09:59:54;;;;;;;;;;;20.50;99.90;;;;;;4994274;28;20016;-76
2021/09/23 10:02:21;;;;;;;;;;;20.90;99.90;;;;;;4997480;28;20041;-75
2021/09/23 10:04:49;;;;;;;;;;;20.50;99.90;;;;;;4994701;28;20563;-75
2021/09/23 10:07:18;;;;;;;;;;;20.00;99.90;;;;;;4994459;28;19961;-75
2021/09/23 10:09:51;;;;;;;;;;;19.30;99.90;;;;;;4991267;28;19925;-75
2021/09/23 10:12:19;;;;;;;;;;;19.10;99.90;;;;;;5012216;28;19933;-75
2021/09/23 10:14:46;;;;;;;;;;;19.00;99.90;;;;;;5002273;28;19932;-75
2021/09/23 10:17:15;;;;;;;;;;;18.90;99.90;;;;;;5004516;28;19997;-76
2021/09/23 10:19:43;;;;;;;;;;;19.20;99.90;;;;;;4996488;28;19936;-75
2021/09/23 10:22:11;;;;;;;;;;;19.70;99.90;;;;;;4998748;28;19929;-72
2021/09/23 10:24:38;;;;;;;;;;;19.90;99.90;;;;;;4992793;28;19939;-73
2021/09/23 10:27:57;;;;;;;;;;;19.80;99.90;;;;;;4997164;28;19959;-73
2021/09/23 10:29:55;;;;;;;;;;;19.30;99.90;;;;;;5001109;28;19930;-74
2021/09/23 10:32:22;;;;;;;;;;;19.30;99.90;;;;;;4986186;28;19933;-75
2021/09/23 10:34:50;;;;;;;;;;;19.40;99.90;;;;;;4999271;28;19999;-74
2021/09/23 10:37:17;;;;;;;;;;;19.40;99.90;;;;;;4993571;28;19933;-74
2021/09/23 10:39:44;;;;;;;;;;;19.50;99.90;;;;;;5009685;28;20020;-74
2021/09/23 10:42:11;;;;;;;;;;;19.70;99.90;;;;;;4997216;28;20014;-74
2021/09/23 10:44:39;;;;;;;;;;;19.90;99.90;;;;;;5004896;28;19979;-73
2021/09/23 10:47:08;;;;;;;;;;;20.20;99.90;;;;;;5024673;28;19925;-73
2021/09/23 10:49:35;;;;;;;;;;;20.30;99.90;;;;;;4997655;28;20527;-75
2021/09/23 10:52:02;;;;;;;;;;;20.00;99.90;;;;;;5002668;28;19956;-76
2021/09/23 10:54:29;;;;;;;;;;;20.20;99.90;;;;;;4994062;28;20412;-76
2021/09/23 10:56:57;;;;;;;;;;;20.40;99.90;;;;;;5000164;28;19925;-75
2021/09/23 10:59:26;;;;;;;;;;;20.30;99.90;;;;;;4995288;28;19943;-74
2021/09/23 11:01:52;;;;;;;;;;;19.90;99.90;;;;;;4997980;28;19957;-74
2021/09/23 11:04:21;;;;;;;;;;;19.70;99.90;;;;;;5000021;28;19925;-75
2021/09/23 11:06:47;;;;;;;;;;;19.40;99.90;;;;;;4989076;28;19944;-76
2021/09/23 11:09:18;;;;;;;;;;;19.30;99.90;;;;;;4991591;28;20024;-78
2021/09/23 11:11:46;;;;;;;;;;;19.20;99.90;;;;;;4999187;28;19985;-75
2021/09/23 11:14:14;;;;;;;;;;;19.00;99.90;;;;;;4995590;28;20008;-76
2021/09/23 11:16:43;;;;;;;;;;;19.10;99.90;;;;;;4991651;28;19969;-78
2021/09/23 11:19:10;;;;;;;;;;;19.50;99.90;;;;;;4994386;28;20012;-78
2021/09/23 11:21:38;;;;;;;;;;;19.80;99.90;;;;;;4995197;28;19926;-76
2021/09/23 11:24:05;;;;;;;;;;;20.30;99.90;;;;;;4999370;28;20307;-76
2021/09/23 11:26:32;;;;;;;;;;;20.60;99.90;;;;;;4994347;28;19929;-76
2021/09/23 11:28:59;;;;;;;;;;;20.70;99.90;;;;;;5004795;28;19933;-75
2021/09/23 11:31:26;;;;;;;;;;;20.60;99.50;;;;;;4993988;28;19961;-76
2021/09/23 11:33:52;;;;;;;;;;;20.30;99.60;;;;;;4993480;28;20391;-76
2021/09/23 11:36:25;;;;;;;;;;;20.20;99.90;;;;;;4988933;28;20017;-75
2021/09/23 11:38:56;;;;;;;;;;;20.40;99.90;;;;;;4993145;28;20374;-76
2021/09/23 11:41:22;;;;;;;;;;;20.30;99.90;;;;;;5007789;28;20330;-77
2021/09/23 11:43:49;;;;;;;;;;;20.40;99.30;;;;;;4996241;28;19929;-76
2021/09/23 11:46:16;;;;;;;;;;;20.40;98.60;;;;;;4993838;28;19934;-75
2021/09/23 11:48:42;;;;;;;;;;;20.30;99.30;;;;;;5006502;28;19925;-77
2021/09/23 11:51:14;;;;;;;;;;;20.70;98.60;;;;;;4997432;28;19926;-77
2021/09/23 11:53:40;;;;;;;;;;;20.60;98.20;;;;;;5004433;28;20003;-78
2021/09/23 11:56:10;;;;;;;;;;;20.30;98.30;;;;;;4992849;28;20443;-76
2021/09/23 11:58:39;;;;;;;;;;;20.40;98.70;;;;;;5010479;28;19926;-75
2021/09/23 12:01:06;;;;;;;;;;;20.40;98.40;;;;;;4993308;28;19938;-77
2021/09/23 12:03:36;;;;;;;;;;;20.20;99.10;;;;;;4996384;28;19933;-77
2021/09/23 12:06:03;;;;;;;;;;;20.30;98.70;;;;;;4995239;28;19925;-73
2021/09/23 12:08:30;;;;;;;;;;;20.20;98.90;;;;;;4991030;28;19933;-75
2021/09/23 12:10:58;;;;;;;;;;;20.10;98.80;;;;;;4990534;28;19934;-75
2021/09/23 12:16:12;;;;;;;;;;;20.40;98.70;;;;;;4987962;28;20377;-75
2021/09/23 12:18:39;;;;;;;;;;;20.40;98.20;;;;;;4991873;28;19926;-75
2021/09/23 12:21:08;;;;;;;;;;;20.30;97.80;;;;;;4995036;28;20016;-72
2021/09/23 12:23:36;;;;;;;;;;;20.30;98.10;;;;;;4988854;28;19926;-73
2021/09/23 12:26:07;;;;;;;;;;;20.70;98.20;;;;;;4990774;28;19949;-75
2021/09/23 12:28:35;;;;;;;;;;;20.90;97.00;;;;;;5000735;28;19948;-75
2021/09/23 12:31:02;;;;;;;;;;;20.70;97.60;;;;;;4988741;28;19936;-75
2021/09/23 12:33:28;;;;;;;;;;;20.50;97.50;;;;;;4991600;28;20217;-75
2021/09/23 12:36:08;;;;;;;;;;;20.40;97.70;;;;;;4995946;28;20020;-75
2021/09/23 12:38:35;;;;;;;;;;;20.40;98.10;;;;;;4992790;28;19972;-75
2021/09/23 12:41:15;;;;;;;;;;;20.50;97.90;;;;;;5001343;28;20304;-74
2021/09/23 12:43:43;;;;;;;;;;;20.50;97.10;;;;;;4995565;28;19953;-75
2021/09/23 12:46:11;;;;;;;;;;;20.50;97.40;;;;;;5000669;28;19925;-74
2021/09/23 12:48:37;;;;;;;;;;;20.30;97.40;;;;;;5000532;28;20066;-74
2021/09/23 12:51:04;;;;;;;;;;;20.40;97.50;;;;;;4994175;28;19926;-75
2021/09/23 12:53:31;;;;;;;;;;;20.40;97.20;;;;;;5006627;28;19925;-74
2021/09/23 12:55:58;;;;;;;;;;;20.60;97.50;;;;;;4993388;28;19932;-75
2021/09/23 12:58:24;;;;;;;;;;;20.70;97.00;;;;;;4988342;28;19930;-74
2021/09/23 13:00:52;;;;;;;;;;;20.80;97.00;;;;;;4993680;28;20011;-74
2021/09/23 13:03:19;;;;;;;;;;;20.70;96.90;;;;;;4998848;28;19985;-75
2021/09/23 13:05:47;;;;;;;;;;;20.90;96.60;;;;;;4999106;28;20036;-75
2021/09/23 13:08:19;;;;;;;;;;;21.00;96.10;;;;;;4989140;28;20446;-75
2021/09/23 13:10:47;;;;;;;;;;;21.00;96.10;;;;;;4989200;28;19965;-75
2021/09/23 13:13:14;;;;;;;;;;;21.10;96.50;;;;;;5000898;28;19929;-74
2021/09/23 13:15:45;;;;;;;;;;;21.40;96.40;;;;;;4997678;28;19925;-74
2021/09/23 13:18:14;;;;;;;;;;;21.50;95.80;;;;;;4997733;28;19944;-77
2021/09/23 13:20:42;;;;;;;;;;;21.40;95.80;;;;;;4990104;28;19926;-77
2021/09/23 13:23:14;;;;;;;;;;;21.40;95.90;;;;;;4990417;28;19933;-75
2021/09/23 13:25:40;;;;;;;;;;;21.70;95.60;;;;;;4994774;28;20020;-77
2021/09/23 13:28:14;;;;;;;;;;;21.90;95.30;;;;;;5001123;28;19965;-76
2021/09/23 13:30:43;;;;;;;;;;;22.10;94.70;;;;;;4990432;28;19944;-76
2021/09/23 13:33:10;;;;;;;;;;;22.20;94.70;;;;;;4991685;28;19933;-76
2021/09/23 13:35:39;;;;;;;;;;;22.20;94.50;;;;;;4995840;28;19929;-76
2021/09/23 13:38:05;;;;;;;;;;;22.30;94.30;;;;;;4992328;28;19973;-75
2021/09/23 13:40:32;;;;;;;;;;;22.10;94.50;;;;;;4997617;28;19925;-75
2021/09/23 13:42:59;;;;;;;;;;;22.00;94.60;;;;;;4998670;28;20459;-75
2021/09/23 13:45:26;;;;;;;;;;;21.70;94.90;;;;;;4997196;28;20307;-74
2021/09/23 13:47:53;;;;;;;;;;;21.50;95.50;;;;;;4991947;28;19925;-74
2021/09/23 13:50:20;;;;;;;;;;;21.50;95.40;;;;;;4991558;28;19932;-74
2021/09/23 13:52:48;;;;;;;;;;;21.50;95.50;;;;;;5005399;28;19926;-74
2021/09/23 13:55:14;;;;;;;;;;;21.50;95.60;;;;;;4994506;28;20021;-75
2021/09/23 13:57:42;;;;;;;;;;;21.40;95.60;;;;;;4990280;28;20281;-75
2021/09/23 14:00:10;;;;;;;;;;;21.60;95.70;;;;;;4993028;28;20078;-74
2021/09/23 14:02:37;;;;;;;;;;;21.60;95.60;;;;;;4996951;28;19967;-74
2021/09/23 14:05:04;;;;;;;;;;;21.70;96.00;;;;;;4998727;28;20020;-74
2021/09/23 14:07:31;;;;;;;;;;;21.70;95.40;;;;;;4996316;28;20076;-74
2021/09/23 14:09:59;;;;;;;;;;;21.40;95.90;;;;;;4993080;28;20029;-74
2021/09/23 14:12:27;;;;;;;;;;;21.40;96.40;;;;;;4996862;28;20012;-75
2021/09/23 14:14:53;;;;;;;;;;;21.30;96.10;;;;;;4997876;28;19932;-74
2021/09/23 14:17:20;;;;;;;;;;;21.30;96.40;;;;;;4996432;28;19965;-74
2021/09/23 14:19:47;;;;;;;;;;;21.40;96.30;;;;;;4994981;28;19926;-74
2021/09/23 14:22:13;;;;;;;;;;;21.20;96.50;;;;;;4990713;28;19926;-75